sensor_id;sensor_type;location;lat;lon;timestamp;P1;durP1;ratioP1;P2;durP2;ratioP2
17422;SDS011;8829;47.932;7.810;2023-06-04T00:00:59;4.63;;;3.57;;
17422;SDS011;8829;47.932;7.810;2023-06-04T00:03:25;5.83;;;3.63;;
17422;SDS011;8829;47.932;7.810;2023-06-04T00:05:52;4.20;;;3.80;;
17422;SDS011;8829;47.932;7.810;2023-06-04T00:08:20;3.77;;;3.40;;
17422;SDS011;8829;47.932;7.810;2023-06-04T00:10:47;3.73;;;3.43;;
17422;SDS011;8829;47.932;7.810;2023-06-04T00:13:14;4.10;;;3.60;;
17422;SDS011;8829;47.932;7.810;2023-06-04T00:15:41;4.13;;;3.73;;
17422;SDS011;8829;47.932;7.810;2023-06-04T00:18:07;9.13;;;4.27;;
17422;SDS011;8829;47.932;7.810;2023-06-04T00:20:36;3.43;;;3.23;;
17422;SDS011;8829;47.932;7.810;2023-06-04T00:23:02;4.13;;;3.73;;
17422;SDS011;8829;47.932;7.810;2023-06-04T00:25:31;5.17;;;3.60;;
17422;SDS011;8829;47.932;7.810;2023-06-04T00:27:58;5.53;;;3.60;;
17422;SDS011;8829;47.932;7.810;2023-06-04T00:30:24;3.90;;;3.47;;
17422;SDS011;8829;47.932;7.810;2023-06-04T00:32:51;6.03;;;3.80;;
17422;SDS011;8829;47.932;7.810;2023-06-04T00:35:18;3.77;;;3.30;;
17422;SDS011;8829;47.932;7.810;2023-06-04T00:37:45;3.87;;;3.57;;
17422;SDS011;8829;47.932;7.810;2023-06-04T00:40:12;3.93;;;3.20;;
17422;SDS011;8829;47.932;7.810;2023-06-04T00:42:40;5.20;;;4.10;;
17422;SDS011;8829;47.932;7.810;2023-06-04T00:45:07;4.40;;;4.00;;
17422;SDS011;8829;47.932;7.810;2023-06-04T00:47:35;3.93;;;3.63;;
17422;SDS011;8829;47.932;7.810;2023-06-04T00:50:02;4.83;;;4.13;;
17422;SDS011;8829;47.932;7.810;2023-06-04T00:52:29;7.97;;;4.23;;
17422;SDS011;8829;47.932;7.810;2023-06-04T00:54:56;5.03;;;4.03;;
17422;SDS011;8829;47.932;7.810;2023-06-04T00:57:23;4.27;;;3.87;;
17422;SDS011;8829;47.932;7.810;2023-06-04T00:59:51;4.77;;;3.80;;
17422;SDS011;8829;47.932;7.810;2023-06-04T01:02:18;5.20;;;4.27;;
17422;SDS011;8829;47.932;7.810;2023-06-04T01:04:49;3.57;;;3.30;;
17422;SDS011;8829;47.932;7.810;2023-06-04T01:07:20;6.57;;;4.40;;
17422;SDS011;8829;47.932;7.810;2023-06-04T01:09:48;4.73;;;3.53;;
17422;SDS011;8829;47.932;7.810;2023-06-04T01:12:15;5.07;;;3.80;;
17422;SDS011;8829;47.932;7.810;2023-06-04T01:14:42;7.00;;;3.87;;
17422;SDS011;8829;47.932;7.810;2023-06-04T01:17:13;4.07;;;3.77;;
17422;SDS011;8829;47.932;7.810;2023-06-04T01:19:57;4.90;;;4.17;;
17422;SDS011;8829;47.932;7.810;2023-06-04T01:22:33;4.30;;;3.90;;
17422;SDS011;8829;47.932;7.810;2023-06-04T01:25:04;4.47;;;3.90;;
17422;SDS011;8829;47.932;7.810;2023-06-04T01:27:45;4.20;;;3.80;;
17422;SDS011;8829;47.932;7.810;2023-06-04T01:30:15;4.60;;;4.13;;
17422;SDS011;8829;47.932;7.810;2023-06-04T01:32:44;3.97;;;3.67;;
17422;SDS011;8829;47.932;7.810;2023-06-04T01:35:11;5.80;;;4.13;;
17422;SDS011;8829;47.932;7.810;2023-06-04T01:37:38;4.73;;;4.33;;
17422;SDS011;8829;47.932;7.810;2023-06-04T01:40:05;4.73;;;4.20;;
17422;SDS011;8829;47.932;7.810;2023-06-04T01:42:34;5.60;;;4.37;;
17422;SDS011;8829;47.932;7.810;2023-06-04T01:45:00;4.13;;;3.73;;
17422;SDS011;8829;47.932;7.810;2023-06-04T01:47:27;5.17;;;4.27;;
17422;SDS011;8829;47.932;7.810;2023-06-04T01:49:55;5.77;;;4.00;;
17422;SDS011;8829;47.932;7.810;2023-06-04T01:52:22;5.03;;;4.60;;
17422;SDS011;8829;47.932;7.810;2023-06-04T01:54:48;6.57;;;4.93;;
17422;SDS011;8829;47.932;7.810;2023-06-04T01:57:17;5.87;;;4.97;;
17422;SDS011;8829;47.932;7.810;2023-06-04T01:59:44;5.87;;;5.27;;
17422;SDS011;8829;47.932;7.810;2023-06-04T02:02:11;10.90;;;4.50;;
17422;SDS011;8829;47.932;7.810;2023-06-04T02:04:38;6.53;;;4.20;;
17422;SDS011;8829;47.932;7.810;2023-06-04T02:07:08;4.50;;;4.10;;
17422;SDS011;8829;47.932;7.810;2023-06-04T02:09:35;4.33;;;3.93;;
17422;SDS011;8829;47.932;7.810;2023-06-04T02:12:02;5.70;;;4.30;;
17422;SDS011;8829;47.932;7.810;2023-06-04T02:14:29;6.40;;;4.30;;
17422;SDS011;8829;47.932;7.810;2023-06-04T02:16:56;4.77;;;4.00;;
17422;SDS011;8829;47.932;7.810;2023-06-04T02:19:23;4.67;;;4.07;;
17422;SDS011;8829;47.932;7.810;2023-06-04T02:21:50;4.50;;;4.07;;
17422;SDS011;8829;47.932;7.810;2023-06-04T02:24:19;5.20;;;4.70;;
17422;SDS011;8829;47.932;7.810;2023-06-04T02:26:46;4.37;;;4.07;;
17422;SDS011;8829;47.932;7.810;2023-06-04T02:29:12;4.87;;;4.37;;
17422;SDS011;8829;47.932;7.810;2023-06-04T02:31:39;5.97;;;4.83;;
17422;SDS011;8829;47.932;7.810;2023-06-04T02:34:06;6.97;;;3.90;;
17422;SDS011;8829;47.932;7.810;2023-06-04T02:36:33;4.80;;;4.30;;
17422;SDS011;8829;47.932;7.810;2023-06-04T02:39:00;4.47;;;4.00;;
17422;SDS011;8829;47.932;7.810;2023-06-04T02:41:29;4.27;;;3.90;;
17422;SDS011;8829;47.932;7.810;2023-06-04T02:43:56;8.57;;;4.63;;
17422;SDS011;8829;47.932;7.810;2023-06-04T02:46:22;5.03;;;4.63;;
17422;SDS011;8829;47.932;7.810;2023-06-04T02:48:49;5.37;;;4.50;;
17422;SDS011;8829;47.932;7.810;2023-06-04T02:51:16;5.83;;;4.47;;
17422;SDS011;8829;47.932;7.810;2023-06-04T02:53:42;5.37;;;4.13;;
17422;SDS011;8829;47.932;7.810;2023-06-04T02:56:10;5.10;;;4.33;;
17422;SDS011;8829;47.932;7.810;2023-06-04T02:58:38;4.70;;;4.30;;
17422;SDS011;8829;47.932;7.810;2023-06-04T03:01:17;4.30;;;3.90;;
17422;SDS011;8829;47.932;7.810;2023-06-04T03:03:44;5.23;;;4.40;;
17422;SDS011;8829;47.932;7.810;2023-06-04T03:06:11;6.23;;;4.50;;
17422;SDS011;8829;47.932;7.810;2023-06-04T03:08:39;4.97;;;4.47;;
17422;SDS011;8829;47.932;7.810;2023-06-04T03:11:06;4.63;;;4.13;;
17422;SDS011;8829;47.932;7.810;2023-06-04T03:13:32;5.03;;;4.50;;
17422;SDS011;8829;47.932;7.810;2023-06-04T03:16:01;4.50;;;4.10;;
17422;SDS011;8829;47.932;7.810;2023-06-04T03:18:28;4.90;;;4.40;;
17422;SDS011;8829;47.932;7.810;2023-06-04T03:20:54;7.83;;;5.10;;
17422;SDS011;8829;47.932;7.810;2023-06-04T03:23:21;5.10;;;4.60;;
17422;SDS011;8829;47.932;7.810;2023-06-04T03:25:48;5.60;;;4.97;;
17422;SDS011;8829;47.932;7.810;2023-06-04T03:28:15;5.07;;;4.60;;
17422;SDS011;8829;47.932;7.810;2023-06-04T03:30:42;5.13;;;4.73;;
17422;SDS011;8829;47.932;7.810;2023-06-04T03:33:10;5.77;;;5.33;;
17422;SDS011;8829;47.932;7.810;2023-06-04T03:35:36;7.83;;;5.33;;
17422;SDS011;8829;47.932;7.810;2023-06-04T03:38:03;4.70;;;4.30;;
17422;SDS011;8829;47.932;7.810;2023-06-04T03:40:29;4.80;;;4.40;;
17422;SDS011;8829;47.932;7.810;2023-06-04T03:42:56;5.80;;;5.30;;
17422;SDS011;8829;47.932;7.810;2023-06-04T03:45:23;6.93;;;5.83;;
17422;SDS011;8829;47.932;7.810;2023-06-04T03:47:50;5.13;;;4.63;;
17422;SDS011;8829;47.932;7.810;2023-06-04T03:50:18;5.60;;;5.10;;
17422;SDS011;8829;47.932;7.810;2023-06-04T03:52:45;14.53;;;5.10;;
17422;SDS011;8829;47.932;7.810;2023-06-04T03:55:12;5.27;;;4.77;;
17422;SDS011;8829;47.932;7.810;2023-06-04T03:57:38;5.50;;;5.00;;
17422;SDS011;8829;47.932;7.810;2023-06-04T04:00:06;6.67;;;5.40;;
17422;SDS011;8829;47.932;7.810;2023-06-04T04:02:37;6.27;;;5.67;;
17422;SDS011;8829;47.932;7.810;2023-06-04T04:05:04;6.83;;;5.53;;
17422;SDS011;8829;47.932;7.810;2023-06-04T04:07:32;7.73;;;5.77;;
17422;SDS011;8829;47.932;7.810;2023-06-04T04:09:59;8.77;;;6.37;;
17422;SDS011;8829;47.932;7.810;2023-06-04T04:12:26;5.87;;;5.30;;
17422;SDS011;8829;47.932;7.810;2023-06-04T04:14:52;6.73;;;5.60;;
17422;SDS011;8829;47.932;7.810;2023-06-04T04:17:19;5.23;;;4.70;;
17422;SDS011;8829;47.932;7.810;2023-06-04T04:19:46;6.00;;;5.50;;
17422;SDS011;8829;47.932;7.810;2023-06-04T04:22:12;6.50;;;5.20;;
17422;SDS011;8829;47.932;7.810;2023-06-04T04:24:43;5.27;;;4.77;;
17422;SDS011;8829;47.932;7.810;2023-06-04T04:27:10;7.27;;;5.00;;
17422;SDS011;8829;47.932;7.810;2023-06-04T04:29:37;5.03;;;4.63;;
17422;SDS011;8829;47.932;7.810;2023-06-04T04:32:04;7.93;;;4.97;;
17422;SDS011;8829;47.932;7.810;2023-06-04T04:34:36;7.70;;;5.37;;
17422;SDS011;8829;47.932;7.810;2023-06-04T04:37:04;5.60;;;5.00;;
17422;SDS011;8829;47.932;7.810;2023-06-04T04:39:33;7.40;;;5.00;;
17422;SDS011;8829;47.932;7.810;2023-06-04T04:42:02;5.97;;;4.70;;
17422;SDS011;8829;47.932;7.810;2023-06-04T04:44:29;5.33;;;4.83;;
17422;SDS011;8829;47.932;7.810;2023-06-04T04:46:56;5.73;;;4.80;;
17422;SDS011;8829;47.932;7.810;2023-06-04T04:49:23;7.13;;;4.67;;
17422;SDS011;8829;47.932;7.810;2023-06-04T04:51:49;6.67;;;4.63;;
17422;SDS011;8829;47.932;7.810;2023-06-04T04:54:16;6.27;;;5.03;;
17422;SDS011;8829;47.932;7.810;2023-06-04T04:56:43;5.43;;;4.93;;
17422;SDS011;8829;47.932;7.810;2023-06-04T04:59:11;5.23;;;4.73;;
17422;SDS011;8829;47.932;7.810;2023-06-04T05:01:37;5.03;;;4.63;;
17422;SDS011;8829;47.932;7.810;2023-06-04T05:04:04;4.80;;;4.33;;
17422;SDS011;8829;47.932;7.810;2023-06-04T05:06:30;5.70;;;5.20;;
17422;SDS011;8829;47.932;7.810;2023-06-04T05:08:57;5.37;;;4.53;;
17422;SDS011;8829;47.932;7.810;2023-06-04T05:11:24;6.87;;;4.83;;
17422;SDS011;8829;47.932;7.810;2023-06-04T05:13:50;5.87;;;5.10;;
17422;SDS011;8829;47.932;7.810;2023-06-04T05:16:18;4.80;;;4.40;;
17422;SDS011;8829;47.932;7.810;2023-06-04T05:18:45;4.33;;;3.93;;
17422;SDS011;8829;47.932;7.810;2023-06-04T05:21:12;12.43;;;4.53;;
17422;SDS011;8829;47.932;7.810;2023-06-04T05:23:39;7.80;;;5.10;;
17422;SDS011;8829;47.932;7.810;2023-06-04T05:26:05;4.97;;;4.47;;
17422;SDS011;8829;47.932;7.810;2023-06-04T05:28:32;4.47;;;4.07;;
17422;SDS011;8829;47.932;7.810;2023-06-04T05:30:59;4.47;;;4.00;;
17422;SDS011;8829;47.932;7.810;2023-06-04T05:33:27;6.07;;;4.40;;
17422;SDS011;8829;47.932;7.810;2023-06-04T05:35:56;6.47;;;4.23;;
17422;SDS011;8829;47.932;7.810;2023-06-04T05:38:23;5.63;;;4.67;;
17422;SDS011;8829;47.932;7.810;2023-06-04T05:40:50;5.67;;;4.67;;
17422;SDS011;8829;47.932;7.810;2023-06-04T05:43:18;4.57;;;4.17;;
17422;SDS011;8829;47.932;7.810;2023-06-04T05:45:44;4.97;;;4.47;;
17422;SDS011;8829;47.932;7.810;2023-06-04T05:48:11;4.90;;;4.40;;
17422;SDS011;8829;47.932;7.810;2023-06-04T05:50:39;7.47;;;4.67;;
17422;SDS011;8829;47.932;7.810;2023-06-04T05:53:06;4.87;;;4.33;;
17422;SDS011;8829;47.932;7.810;2023-06-04T05:55:33;5.57;;;4.57;;
17422;SDS011;8829;47.932;7.810;2023-06-04T05:57:59;6.63;;;4.00;;
17422;SDS011;8829;47.932;7.810;2023-06-04T06:00:27;5.90;;;4.63;;
17422;SDS011;8829;47.932;7.810;2023-06-04T06:02:54;5.70;;;4.67;;
17422;SDS011;8829;47.932;7.810;2023-06-04T06:05:22;5.13;;;4.40;;
17422;SDS011;8829;47.932;7.810;2023-06-04T06:07:50;5.00;;;4.50;;
17422;SDS011;8829;47.932;7.810;2023-06-04T06:10:16;5.30;;;4.83;;
17422;SDS011;8829;47.932;7.810;2023-06-04T06:12:43;5.33;;;4.80;;
17422;SDS011;8829;47.932;7.810;2023-06-04T06:15:10;6.00;;;5.10;;
17422;SDS011;8829;47.932;7.810;2023-06-04T06:17:37;4.97;;;4.47;;
17422;SDS011;8829;47.932;7.810;2023-06-04T06:20:05;7.43;;;4.80;;
17422;SDS011;8829;47.932;7.810;2023-06-04T06:22:33;10.60;;;5.20;;
17422;SDS011;8829;47.932;7.810;2023-06-04T06:25:01;4.87;;;4.40;;
17422;SDS011;8829;47.932;7.810;2023-06-04T06:27:30;5.77;;;5.17;;
17422;SDS011;8829;47.932;7.810;2023-06-04T06:29:57;6.70;;;4.40;;
17422;SDS011;8829;47.932;7.810;2023-06-04T06:32:24;5.47;;;4.60;;
17422;SDS011;8829;47.932;7.810;2023-06-04T06:34:50;4.87;;;4.20;;
17422;SDS011;8829;47.932;7.810;2023-06-04T06:37:17;6.43;;;4.93;;
17422;SDS011;8829;47.932;7.810;2023-06-04T06:39:44;5.63;;;4.33;;
17422;SDS011;8829;47.932;7.810;2023-06-04T06:42:12;6.60;;;4.77;;
17422;SDS011;8829;47.932;7.810;2023-06-04T06:44:39;6.27;;;4.60;;
17422;SDS011;8829;47.932;7.810;2023-06-04T06:47:05;5.53;;;3.90;;
17422;SDS011;8829;47.932;7.810;2023-06-04T06:49:32;4.67;;;4.10;;
17422;SDS011;8829;47.932;7.810;2023-06-04T06:51:59;4.70;;;4.23;;
17422;SDS011;8829;47.932;7.810;2023-06-04T06:54:25;5.07;;;4.57;;
17422;SDS011;8829;47.932;7.810;2023-06-04T06:56:52;6.10;;;4.87;;
17422;SDS011;8829;47.932;7.810;2023-06-04T06:59:20;4.83;;;4.30;;
17422;SDS011;8829;47.932;7.810;2023-06-04T07:01:47;6.50;;;4.57;;
17422;SDS011;8829;47.932;7.810;2023-06-04T07:04:13;6.20;;;4.43;;
17422;SDS011;8829;47.932;7.810;2023-06-04T07:06:41;6.50;;;4.10;;
17422;SDS011;8829;47.932;7.810;2023-06-04T07:09:07;5.07;;;4.30;;
17422;SDS011;8829;47.932;7.810;2023-06-04T07:11:34;6.43;;;4.67;;
17422;SDS011;8829;47.932;7.810;2023-06-04T07:14:01;7.90;;;5.03;;
17422;SDS011;8829;47.932;7.810;2023-06-04T07:16:29;6.03;;;4.37;;
17422;SDS011;8829;47.932;7.810;2023-06-04T07:18:56;5.27;;;4.73;;
17422;SDS011;8829;47.932;7.810;2023-06-04T07:21:23;5.60;;;4.83;;
17422;SDS011;8829;47.932;7.810;2023-06-04T07:23:49;6.00;;;5.40;;
17422;SDS011;8829;47.932;7.810;2023-06-04T07:26:16;5.53;;;4.10;;
17422;SDS011;8829;47.932;7.810;2023-06-04T07:28:43;8.53;;;5.40;;
17422;SDS011;8829;47.932;7.810;2023-06-04T07:31:10;5.43;;;4.93;;
17422;SDS011;8829;47.932;7.810;2023-06-04T07:33:38;5.30;;;4.80;;
17422;SDS011;8829;47.932;7.810;2023-06-04T07:36:08;4.87;;;4.37;;
17422;SDS011;8829;47.932;7.810;2023-06-04T07:38:35;6.10;;;3.90;;
17422;SDS011;8829;47.932;7.810;2023-06-04T07:41:02;4.80;;;3.93;;
17422;SDS011;8829;47.932;7.810;2023-06-04T07:43:28;7.00;;;4.27;;
17422;SDS011;8829;47.932;7.810;2023-06-04T07:45:55;5.63;;;4.27;;
17422;SDS011;8829;47.932;7.810;2023-06-04T07:48:22;6.57;;;3.77;;
17422;SDS011;8829;47.932;7.810;2023-06-04T07:50:57;5.17;;;4.20;;
17422;SDS011;8829;47.932;7.810;2023-06-04T07:53:24;6.17;;;3.57;;
17422;SDS011;8829;47.932;7.810;2023-06-04T07:55:51;5.23;;;3.83;;
17422;SDS011;8829;47.932;7.810;2023-06-04T07:58:18;4.23;;;3.70;;
17422;SDS011;8829;47.932;7.810;2023-06-04T08:00:44;4.50;;;4.10;;
17422;SDS011;8829;47.932;7.810;2023-06-04T08:03:11;4.73;;;3.70;;
17422;SDS011;8829;47.932;7.810;2023-06-04T08:05:40;4.63;;;3.63;;
17422;SDS011;8829;47.932;7.810;2023-06-04T08:08:08;3.87;;;3.57;;
17422;SDS011;8829;47.932;7.810;2023-06-04T08:10:35;5.00;;;4.27;;
17422;SDS011;8829;47.932;7.810;2023-06-04T08:13:02;4.47;;;3.53;;
17422;SDS011;8829;47.932;7.810;2023-06-04T08:15:28;4.53;;;3.70;;
17422;SDS011;8829;47.932;7.810;2023-06-04T08:17:55;4.17;;;3.77;;
17422;SDS011;8829;47.932;7.810;2023-06-04T08:20:22;5.53;;;3.90;;
17422;SDS011;8829;47.932;7.810;2023-06-04T08:22:49;4.37;;;3.97;;
17422;SDS011;8829;47.932;7.810;2023-06-04T08:25:17;4.53;;;3.70;;
17422;SDS011;8829;47.932;7.810;2023-06-04T08:27:44;4.27;;;3.83;;
17422;SDS011;8829;47.932;7.810;2023-06-04T08:30:11;3.90;;;3.60;;
17422;SDS011;8829;47.932;7.810;2023-06-04T08:32:37;3.97;;;3.53;;
17422;SDS011;8829;47.932;7.810;2023-06-04T08:35:05;5.50;;;3.70;;
17422;SDS011;8829;47.932;7.810;2023-06-04T08:37:33;9.00;;;3.53;;
17422;SDS011;8829;47.932;7.810;2023-06-04T08:40:00;3.47;;;3.17;;
17422;SDS011;8829;47.932;7.810;2023-06-04T08:42:29;4.10;;;3.43;;
17422;SDS011;8829;47.932;7.810;2023-06-04T08:44:56;6.93;;;3.57;;
17422;SDS011;8829;47.932;7.810;2023-06-04T08:47:24;3.90;;;3.37;;
17422;SDS011;8829;47.932;7.810;2023-06-04T08:49:51;5.53;;;3.50;;
17422;SDS011;8829;47.932;7.810;2023-06-04T08:52:18;3.37;;;3.07;;
17422;SDS011;8829;47.932;7.810;2023-06-04T08:54:47;4.37;;;3.20;;
17422;SDS011;8829;47.932;7.810;2023-06-04T08:57:14;4.00;;;2.87;;
17422;SDS011;8829;47.932;7.810;2023-06-04T08:59:44;3.23;;;2.77;;
17422;SDS011;8829;47.932;7.810;2023-06-04T09:02:11;3.30;;;3.00;;
17422;SDS011;8829;47.932;7.810;2023-06-04T09:04:39;4.77;;;2.73;;
17422;SDS011;8829;47.932;7.810;2023-06-04T09:07:05;4.33;;;2.67;;
17422;SDS011;8829;47.932;7.810;2023-06-04T09:09:33;5.00;;;3.20;;
17422;SDS011;8829;47.932;7.810;2023-06-04T09:12:04;3.03;;;2.80;;
17422;SDS011;8829;47.932;7.810;2023-06-04T09:14:34;5.13;;;3.03;;
17422;SDS011;8829;47.932;7.810;2023-06-04T09:17:02;5.13;;;2.87;;
17422;SDS011;8829;47.932;7.810;2023-06-04T09:19:30;4.07;;;3.03;;
17422;SDS011;8829;47.932;7.810;2023-06-04T09:21:57;5.57;;;3.77;;
17422;SDS011;8829;47.932;7.810;2023-06-04T09:24:26;5.20;;;3.90;;
17422;SDS011;8829;47.932;7.810;2023-06-04T09:27:08;5.37;;;3.93;;
17422;SDS011;8829;47.932;7.810;2023-06-04T09:29:36;4.40;;;4.00;;
17422;SDS011;8829;47.932;7.810;2023-06-04T09:32:04;5.83;;;4.60;;
17422;SDS011;8829;47.932;7.810;2023-06-04T09:34:31;5.00;;;3.87;;
17422;SDS011;8829;47.932;7.810;2023-06-04T09:36:57;6.10;;;4.20;;
17422;SDS011;8829;47.932;7.810;2023-06-04T09:39:24;6.63;;;4.87;;
17422;SDS011;8829;47.932;7.810;2023-06-04T09:41:58;4.90;;;4.50;;
17422;SDS011;8829;47.932;7.810;2023-06-04T09:44:26;4.50;;;4.10;;
17422;SDS011;8829;47.932;7.810;2023-06-04T09:46:54;5.27;;;4.27;;
17422;SDS011;8829;47.932;7.810;2023-06-04T09:49:22;6.93;;;4.57;;
17422;SDS011;8829;47.932;7.810;2023-06-04T09:51:49;4.80;;;3.90;;
17422;SDS011;8829;47.932;7.810;2023-06-04T09:54:16;5.80;;;3.47;;
17422;SDS011;8829;47.932;7.810;2023-06-04T09:56:43;5.13;;;3.70;;
17422;SDS011;8829;47.932;7.810;2023-06-04T09:59:10;5.03;;;3.73;;
17422;SDS011;8829;47.932;7.810;2023-06-04T10:01:38;4.30;;;4.00;;
17422;SDS011;8829;47.932;7.810;2023-06-04T10:04:06;7.00;;;4.33;;
17422;SDS011;8829;47.932;7.810;2023-06-04T10:06:38;4.63;;;3.70;;
17422;SDS011;8829;47.932;7.810;2023-06-04T10:09:06;3.90;;;3.50;;
17422;SDS011;8829;47.932;7.810;2023-06-04T10:11:34;6.00;;;4.00;;
17422;SDS011;8829;47.932;7.810;2023-06-04T10:14:04;5.93;;;4.00;;
17422;SDS011;8829;47.932;7.810;2023-06-04T10:16:36;5.10;;;4.13;;
17422;SDS011;8829;47.932;7.810;2023-06-04T10:19:04;5.80;;;3.70;;
17422;SDS011;8829;47.932;7.810;2023-06-04T10:21:33;5.40;;;3.83;;
17422;SDS011;8829;47.932;7.810;2023-06-04T10:24:02;7.80;;;4.17;;
17422;SDS011;8829;47.932;7.810;2023-06-04T10:26:32;5.67;;;3.93;;
17422;SDS011;8829;47.932;7.810;2023-06-04T10:29:00;4.50;;;4.03;;
17422;SDS011;8829;47.932;7.810;2023-06-04T10:31:27;4.73;;;3.47;;
17422;SDS011;8829;47.932;7.810;2023-06-04T10:33:54;4.10;;;3.70;;
17422;SDS011;8829;47.932;7.810;2023-06-04T10:36:22;3.93;;;3.53;;
17422;SDS011;8829;47.932;7.810;2023-06-04T10:38:50;4.93;;;4.17;;
17422;SDS011;8829;47.932;7.810;2023-06-04T10:41:20;6.20;;;4.27;;
17422;SDS011;8829;47.932;7.810;2023-06-04T10:43:47;6.37;;;4.03;;
17422;SDS011;8829;47.932;7.810;2023-06-04T10:46:16;5.77;;;3.73;;
17422;SDS011;8829;47.932;7.810;2023-06-04T10:48:47;4.70;;;4.03;;
17422;SDS011;8829;47.932;7.810;2023-06-04T10:51:15;4.23;;;3.83;;
17422;SDS011;8829;47.932;7.810;2023-06-04T10:53:42;4.17;;;3.40;;
17422;SDS011;8829;47.932;7.810;2023-06-04T10:56:08;4.90;;;3.73;;
17422;SDS011;8829;47.932;7.810;2023-06-04T10:58:37;7.30;;;3.90;;
17422;SDS011;8829;47.932;7.810;2023-06-04T11:01:03;5.53;;;3.83;;
17422;SDS011;8829;47.932;7.810;2023-06-04T11:03:36;6.10;;;3.90;;
17422;SDS011;8829;47.932;7.810;2023-06-04T11:06:14;8.23;;;4.13;;
17422;SDS011;8829;47.932;7.810;2023-06-04T11:08:41;4.17;;;3.67;;
17422;SDS011;8829;47.932;7.810;2023-06-04T11:11:11;3.73;;;3.40;;
17422;SDS011;8829;47.932;7.810;2023-06-04T11:13:40;6.90;;;4.50;;
17422;SDS011;8829;47.932;7.810;2023-06-04T11:16:16;4.73;;;4.30;;
17422;SDS011;8829;47.932;7.810;2023-06-04T11:18:43;3.83;;;3.53;;
17422;SDS011;8829;47.932;7.810;2023-06-04T11:21:19;6.40;;;4.10;;
17422;SDS011;8829;47.932;7.810;2023-06-04T11:23:47;4.33;;;4.00;;
17422;SDS011;8829;47.932;7.810;2023-06-04T11:26:13;6.40;;;3.80;;
17422;SDS011;8829;47.932;7.810;2023-06-04T11:28:41;4.73;;;3.83;;
17422;SDS011;8829;47.932;7.810;2023-06-04T11:31:10;4.53;;;3.60;;
17422;SDS011;8829;47.932;7.810;2023-06-04T11:33:43;4.20;;;3.80;;
17422;SDS011;8829;47.932;7.810;2023-06-04T11:36:10;6.10;;;3.63;;
17422;SDS011;8829;47.932;7.810;2023-06-04T11:38:53;5.60;;;4.00;;
17422;SDS011;8829;47.932;7.810;2023-06-04T11:41:20;4.83;;;3.80;;
17422;SDS011;8829;47.932;7.810;2023-06-04T11:43:48;5.23;;;3.67;;
17422;SDS011;8829;47.932;7.810;2023-06-04T11:46:15;4.37;;;3.57;;
17422;SDS011;8829;47.932;7.810;2023-06-04T11:48:42;3.30;;;3.00;;
17422;SDS011;8829;47.932;7.810;2023-06-04T11:51:09;4.10;;;3.73;;
17422;SDS011;8829;47.932;7.810;2023-06-04T11:53:36;3.77;;;3.47;;
17422;SDS011;8829;47.932;7.810;2023-06-04T11:56:03;4.13;;;3.60;;
17422;SDS011;8829;47.932;7.810;2023-06-04T11:58:30;3.77;;;3.47;;
17422;SDS011;8829;47.932;7.810;2023-06-04T12:00:59;4.70;;;3.73;;
17422;SDS011;8829;47.932;7.810;2023-06-04T12:03:36;7.37;;;3.20;;
17422;SDS011;8829;47.932;7.810;2023-06-04T12:06:10;3.53;;;3.23;;
17422;SDS011;8829;47.932;7.810;2023-06-04T12:08:47;6.17;;;3.50;;
17422;SDS011;8829;47.932;7.810;2023-06-04T12:11:25;3.33;;;3.13;;
17422;SDS011;8829;47.932;7.810;2023-06-04T12:13:53;5.17;;;3.57;;
17422;SDS011;8829;47.932;7.810;2023-06-04T12:16:22;6.53;;;3.80;;
17422;SDS011;8829;47.932;7.810;2023-06-04T12:18:49;4.50;;;3.57;;
17422;SDS011;8829;47.932;7.810;2023-06-04T12:21:24;5.63;;;3.30;;
17422;SDS011;8829;47.932;7.810;2023-06-04T12:23:53;4.50;;;3.47;;
17422;SDS011;8829;47.932;7.810;2023-06-04T12:26:21;4.03;;;3.57;;
17422;SDS011;8829;47.932;7.810;2023-06-04T12:28:58;5.37;;;3.60;;
17422;SDS011;8829;47.932;7.810;2023-06-04T12:31:27;4.13;;;3.53;;
17422;SDS011;8829;47.932;7.810;2023-06-04T12:33:57;4.60;;;3.70;;
17422;SDS011;8829;47.932;7.810;2023-06-04T12:36:26;4.50;;;3.80;;
17422;SDS011;8829;47.932;7.810;2023-06-04T12:38:57;3.87;;;3.50;;
17422;SDS011;8829;47.932;7.810;2023-06-04T12:41:25;3.63;;;3.00;;
17422;SDS011;8829;47.932;7.810;2023-06-04T12:43:51;5.67;;;3.33;;
17422;SDS011;8829;47.932;7.810;2023-06-04T12:46:18;3.53;;;3.23;;
17422;SDS011;8829;47.932;7.810;2023-06-04T12:48:46;3.43;;;3.13;;
17422;SDS011;8829;47.932;7.810;2023-06-04T12:51:13;7.53;;;3.47;;
17422;SDS011;8829;47.932;7.810;2023-06-04T12:53:40;6.23;;;3.80;;
17422;SDS011;8829;47.932;7.810;2023-06-04T12:56:07;4.10;;;3.70;;
17422;SDS011;8829;47.932;7.810;2023-06-04T12:58:34;3.60;;;2.90;;
17422;SDS011;8829;47.932;7.810;2023-06-04T13:01:01;4.07;;;3.40;;
17422;SDS011;8829;47.932;7.810;2023-06-04T13:03:29;3.73;;;3.43;;
17422;SDS011;8829;47.932;7.810;2023-06-04T13:05:57;3.53;;;3.23;;
17422;SDS011;8829;47.932;7.810;2023-06-04T13:08:24;5.03;;;3.23;;
17422;SDS011;8829;47.932;7.810;2023-06-04T13:10:51;3.70;;;3.20;;
17422;SDS011;8829;47.932;7.810;2023-06-04T13:13:18;5.73;;;3.00;;
17422;SDS011;8829;47.932;7.810;2023-06-04T13:15:47;5.80;;;3.70;;
17422;SDS011;8829;47.932;7.810;2023-06-04T13:18:13;4.17;;;2.93;;
17422;SDS011;8829;47.932;7.810;2023-06-04T13:20:40;4.33;;;3.23;;
17422;SDS011;8829;47.932;7.810;2023-06-04T13:23:09;8.80;;;3.97;;
17422;SDS011;8829;47.932;7.810;2023-06-04T13:25:37;3.63;;;3.20;;
17422;SDS011;8829;47.932;7.810;2023-06-04T13:28:04;3.67;;;3.33;;
17422;SDS011;8829;47.932;7.810;2023-06-04T13:30:32;4.63;;;3.83;;
17422;SDS011;8829;47.932;7.810;2023-06-04T13:33:00;3.33;;;3.00;;
17422;SDS011;8829;47.932;7.810;2023-06-04T13:35:27;3.40;;;3.10;;
17422;SDS011;8829;47.932;7.810;2023-06-04T13:37:54;3.67;;;3.37;;
17422;SDS011;8829;47.932;7.810;2023-06-04T13:40:22;3.57;;;3.27;;
17422;SDS011;8829;47.932;7.810;2023-06-04T13:42:49;3.50;;;3.13;;
17422;SDS011;8829;47.932;7.810;2023-06-04T13:45:16;5.20;;;3.20;;
17422;SDS011;8829;47.932;7.810;2023-06-04T13:47:45;5.40;;;3.53;;
17422;SDS011;8829;47.932;7.810;2023-06-04T13:50:11;5.30;;;3.43;;
17422;SDS011;8829;47.932;7.810;2023-06-04T13:52:38;5.80;;;3.60;;
17422;SDS011;8829;47.932;7.810;2023-06-04T13:55:05;3.50;;;2.83;;
17422;SDS011;8829;47.932;7.810;2023-06-04T13:57:34;4.50;;;3.40;;
17422;SDS011;8829;47.932;7.810;2023-06-04T14:00:01;3.53;;;3.13;;
17422;SDS011;8829;47.932;7.810;2023-06-04T14:02:27;3.40;;;3.10;;
17422;SDS011;8829;47.932;7.810;2023-06-04T14:04:54;5.23;;;2.97;;
17422;SDS011;8829;47.932;7.810;2023-06-04T14:07:21;2.97;;;2.67;;
17422;SDS011;8829;47.932;7.810;2023-06-04T14:09:48;3.20;;;3.00;;
17422;SDS011;8829;47.932;7.810;2023-06-04T14:12:19;3.97;;;3.20;;
17422;SDS011;8829;47.932;7.810;2023-06-04T14:14:47;5.57;;;3.00;;
17422;SDS011;8829;47.932;7.810;2023-06-04T14:17:14;3.70;;;3.20;;
17422;SDS011;8829;47.932;7.810;2023-06-04T14:19:41;4.03;;;3.10;;
17422;SDS011;8829;47.932;7.810;2023-06-04T14:22:07;3.60;;;2.70;;
17422;SDS011;8829;47.932;7.810;2023-06-04T14:24:35;5.23;;;3.27;;
17422;SDS011;8829;47.932;7.810;2023-06-04T14:27:02;5.57;;;3.37;;
17422;SDS011;8829;47.932;7.810;2023-06-04T14:29:28;4.33;;;2.97;;
17422;SDS011;8829;47.932;7.810;2023-06-04T14:31:56;3.47;;;2.90;;
17422;SDS011;8829;47.932;7.810;2023-06-04T14:34:23;6.93;;;3.20;;
17422;SDS011;8829;47.932;7.810;2023-06-04T14:36:50;4.03;;;3.50;;
17422;SDS011;8829;47.932;7.810;2023-06-04T14:39:17;3.63;;;3.17;;
17422;SDS011;8829;47.932;7.810;2023-06-04T14:41:43;3.60;;;2.93;;
17422;SDS011;8829;47.932;7.810;2023-06-04T14:44:10;4.80;;;3.63;;
17422;SDS011;8829;47.932;7.810;2023-06-04T14:46:37;3.93;;;3.00;;
17422;SDS011;8829;47.932;7.810;2023-06-04T14:49:06;4.67;;;2.93;;
17422;SDS011;8829;47.932;7.810;2023-06-04T14:51:32;7.13;;;3.80;;
17422;SDS011;8829;47.932;7.810;2023-06-04T14:53:59;3.57;;;3.00;;
17422;SDS011;8829;47.932;7.810;2023-06-04T14:56:26;3.70;;;2.70;;
17422;SDS011;8829;47.932;7.810;2023-06-04T14:58:53;7.47;;;3.63;;
17422;SDS011;8829;47.932;7.810;2023-06-04T15:01:20;3.00;;;2.70;;
17422;SDS011;8829;47.932;7.810;2023-06-04T15:03:47;2.90;;;2.70;;